sensor_id;sensor_type;location;lat;lon;timestamp;temperature;humidity
18611;DHT22;9435;52.122;5.502;2023-08-06T00:01:56;15.20;99.90
18611;DHT22;9435;52.122;5.502;2023-08-06T00:04:23;15.20;99.90
18611;DHT22;9435;52.122;5.502;2023-08-06T00:06:50;15.20;99.90
18611;DHT22;9435;52.122;5.502;2023-08-06T00:09:17;15.10;99.90
18611;DHT22;9435;52.122;5.502;2023-08-06T00:11:44;15.10;99.90
18611;DHT22;9435;52.122;5.502;2023-08-06T00:14:12;15.10;99.90
18611;DHT22;9435;52.122;5.502;2023-08-06T00:16:42;15.10;99.90
18611;DHT22;9435;52.122;5.502;2023-08-06T00:19:11;15.10;99.90
18611;DHT22;9435;52.122;5.502;2023-08-06T00:21:38;15.10;99.90
18611;DHT22;9435;52.122;5.502;2023-08-06T00:24:05;15.20;99.90
18611;DHT22;9435;52.122;5.502;2023-08-06T00:26:32;15.10;99.90
18611;DHT22;9435;52.122;5.502;2023-08-06T00:28:59;15.10;99.90
18611;DHT22;9435;52.122;5.502;2023-08-06T00:31:26;15.20;99.90
18611;DHT22;9435;52.122;5.502;2023-08-06T00:33:53;15.20;99.90
18611;DHT22;9435;52.122;5.502;2023-08-06T00:36:21;15.20;99.90
18611;DHT22;9435;52.122;5.502;2023-08-06T00:38:48;15.20;99.90
18611;DHT22;9435;52.122;5.502;2023-08-06T00:41:15;15.30;99.90
18611;DHT22;9435;52.122;5.502;2023-08-06T00:43:42;15.20;99.90
18611;DHT22;9435;52.122;5.502;2023-08-06T00:46:09;15.10;99.90
18611;DHT22;9435;52.122;5.502;2023-08-06T00:48:37;15.20;99.90
18611;DHT22;9435;52.122;5.502;2023-08-06T00:51:04;15.20;99.90
18611;DHT22;9435;52.122;5.502;2023-08-06T00:53:33;15.10;99.90
18611;DHT22;9435;52.122;5.502;2023-08-06T00:56:00;15.10;99.90
18611;DHT22;9435;52.122;5.502;2023-08-06T00:58:28;15.20;99.90
18611;DHT22;9435;52.122;5.502;2023-08-06T01:00:55;15.20;99.90
18611;DHT22;9435;52.122;5.502;2023-08-06T01:03:22;15.20;99.90
18611;DHT22;9435;52.122;5.502;2023-08-06T01:05:49;15.20;99.90
18611;DHT22;9435;52.122;5.502;2023-08-06T01:08:28;15.20;99.90
18611;DHT22;9435;52.122;5.502;2023-08-06T01:11:11;15.30;99.90
18611;DHT22;9435;52.122;5.502;2023-08-06T01:13:43;15.20;99.90
18611;DHT22;9435;52.122;5.502;2023-08-06T01:16:15;15.30;99.90
18611;DHT22;9435;52.122;5.502;2023-08-06T01:18:43;15.30;99.90
18611;DHT22;9435;52.122;5.502;2023-08-06T01:21:13;15.30;99.90
18611;DHT22;9435;52.122;5.502;2023-08-06T01:23:41;15.30;99.90
18611;DHT22;9435;52.122;5.502;2023-08-06T01:26:14;15.30;99.90
18611;DHT22;9435;52.122;5.502;2023-08-06T01:28:48;15.30;99.90
18611;DHT22;9435;52.122;5.502;2023-08-06T01:31:21;15.30;99.90
18611;DHT22;9435;52.122;5.502;2023-08-06T01:33:49;15.30;99.90
18611;DHT22;9435;52.122;5.502;2023-08-06T01:36:19;15.20;99.90
18611;DHT22;9435;52.122;5.502;2023-08-06T01:38:47;15.20;99.90
18611;DHT22;9435;52.122;5.502;2023-08-06T01:41:14;15.20;99.90
18611;DHT22;9435;52.122;5.502;2023-08-06T01:43:41;15.30;99.90
18611;DHT22;9435;52.122;5.502;2023-08-06T01:46:08;15.30;99.90
18611;DHT22;9435;52.122;5.502;2023-08-06T01:48:35;15.20;99.90
18611;DHT22;9435;52.122;5.502;2023-08-06T01:51:04;15.30;99.90
18611;DHT22;9435;52.122;5.502;2023-08-06T01:53:33;15.30;99.90
18611;DHT22;9435;52.122;5.502;2023-08-06T01:56:00;15.20;99.90
18611;DHT22;9435;52.122;5.502;2023-08-06T01:58:27;15.10;99.90
18611;DHT22;9435;52.122;5.502;2023-08-06T02:00:54;15.20;99.90
18611;DHT22;9435;52.122;5.502;2023-08-06T02:03:21;15.20;99.90
18611;DHT22;9435;52.122;5.502;2023-08-06T02:05:49;15.10;99.90
18611;DHT22;9435;52.122;5.502;2023-08-06T02:08:16;15.20;99.90
18611;DHT22;9435;52.122;5.502;2023-08-06T02:10:44;15.10;99.90
18611;DHT22;9435;52.122;5.502;2023-08-06T02:13:12;15.00;99.90
18611;DHT22;9435;52.122;5.502;2023-08-06T02:15:42;15.10;99.90
18611;DHT22;9435;52.122;5.502;2023-08-06T02:18:10;15.10;99.90
18611;DHT22;9435;52.122;5.502;2023-08-06T02:20:37;15.00;99.90
18611;DHT22;9435;52.122;5.502;2023-08-06T02:23:04;15.00;99.90
18611;DHT22;9435;52.122;5.502;2023-08-06T02:25:31;15.00;99.90
18611;DHT22;9435;52.122;5.502;2023-08-06T02:27:59;15.10;99.90
18611;DHT22;9435;52.122;5.502;2023-08-06T02:30:26;15.10;99.90
18611;DHT22;9435;52.122;5.502;2023-08-06T02:32:54;15.00;99.90
18611;DHT22;9435;52.122;5.502;2023-08-06T02:35:21;15.00;99.90
18611;DHT22;9435;52.122;5.502;2023-08-06T02:37:47;15.00;99.90
18611;DHT22;9435;52.122;5.502;2023-08-06T02:40:15;15.00;99.90
18611;DHT22;9435;52.122;5.502;2023-08-06T02:42:42;15.00;99.90
18611;DHT22;9435;52.122;5.502;2023-08-06T02:45:10;15.00;99.90
18611;DHT22;9435;52.122;5.502;2023-08-06T02:47:37;15.00;99.90
18611;DHT22;9435;52.122;5.502;2023-08-06T02:50:05;14.90;99.90
18611;DHT22;9435;52.122;5.502;2023-08-06T02:52:32;15.00;99.90
18611;DHT22;9435;52.122;5.502;2023-08-06T02:54:59;15.00;99.90
18611;DHT22;9435;52.122;5.502;2023-08-06T02:57:26;14.90;99.90
18611;DHT22;9435;52.122;5.502;2023-08-06T02:59:54;15.00;99.90
18611;DHT22;9435;52.122;5.502;2023-08-06T03:02:22;15.00;99.90
18611;DHT22;9435;52.122;5.502;2023-08-06T03:04:49;15.00;99.90
18611;DHT22;9435;52.122;5.502;2023-08-06T03:07:16;15.00;99.90
18611;DHT22;9435;52.122;5.502;2023-08-06T03:09:43;15.00;99.90
18611;DHT22;9435;52.122;5.502;2023-08-06T03:12:11;14.90;99.90
18611;DHT22;9435;52.122;5.502;2023-08-06T03:14:38;14.90;99.90
18611;DHT22;9435;52.122;5.502;2023-08-06T03:17:05;14.90;99.90
18611;DHT22;9435;52.122;5.502;2023-08-06T03:19:34;14.90;99.90
18611;DHT22;9435;52.122;5.502;2023-08-06T03:22:01;14.90;99.90
18611;DHT22;9435;52.122;5.502;2023-08-06T03:24:28;14.90;99.90
18611;DHT22;9435;52.122;5.502;2023-08-06T03:26:55;14.90;99.90
18611;DHT22;9435;52.122;5.502;2023-08-06T03:29:22;14.80;99.90
18611;DHT22;9435;52.122;5.502;2023-08-06T03:31:49;14.80;99.90
18611;DHT22;9435;52.122;5.502;2023-08-06T03:34:16;14.90;99.90
18611;DHT22;9435;52.122;5.502;2023-08-06T03:36:44;14.90;99.90
18611;DHT22;9435;52.122;5.502;2023-08-06T03:39:12;14.90;99.90
18611;DHT22;9435;52.122;5.502;2023-08-06T03:41:39;14.90;99.90
18611;DHT22;9435;52.122;5.502;2023-08-06T03:44:06;14.80;99.90
18611;DHT22;9435;52.122;5.502;2023-08-06T03:46:33;14.80;99.90
18611;DHT22;9435;52.122;5.502;2023-08-06T03:49:01;14.90;99.90
18611;DHT22;9435;52.122;5.502;2023-08-06T03:51:28;14.90;99.90
18611;DHT22;9435;52.122;5.502;2023-08-06T03:53:56;14.90;99.90
18611;DHT22;9435;52.122;5.502;2023-08-06T03:56:23;14.80;99.90
18611;DHT22;9435;52.122;5.502;2023-08-06T03:58:51;14.90;99.90
18611;DHT22;9435;52.122;5.502;2023-08-06T04:01:18;14.80;99.90
18611;DHT22;9435;52.122;5.502;2023-08-06T04:03:45;14.90;99.90
18611;DHT22;9435;52.122;5.502;2023-08-06T04:06:12;14.80;99.90
18611;DHT22;9435;52.122;5.502;2023-08-06T04:08:39;14.90;99.90
18611;DHT22;9435;52.122;5.502;2023-08-06T04:11:07;15.00;99.90
18611;DHT22;9435;52.122;5.502;2023-08-06T04:13:34;15.00;99.90
18611;DHT22;9435;52.122;5.502;2023-08-06T04:16:02;15.00;99.90
18611;DHT22;9435;52.122;5.502;2023-08-06T04:18:29;15.00;99.90
18611;DHT22;9435;52.122;5.502;2023-08-06T04:20:56;14.90;99.90
18611;DHT22;9435;52.122;5.502;2023-08-06T04:23:24;14.90;99.90
18611;DHT22;9435;52.122;5.502;2023-08-06T04:25:50;15.00;99.90
18611;DHT22;9435;52.122;5.502;2023-08-06T04:28:19;14.90;99.90
18611;DHT22;9435;52.122;5.502;2023-08-06T04:30:46;14.90;99.90
18611;DHT22;9435;52.122;5.502;2023-08-06T04:33:13;14.90;99.90
18611;DHT22;9435;52.122;5.502;2023-08-06T04:35:40;15.00;99.90
18611;DHT22;9435;52.122;5.502;2023-08-06T04:38:07;14.90;99.90
18611;DHT22;9435;52.122;5.502;2023-08-06T04:40:34;15.00;99.90
18611;DHT22;9435;52.122;5.502;2023-08-06T04:43:02;14.90;99.90
18611;DHT22;9435;52.122;5.502;2023-08-06T04:45:30;14.90;99.90
18611;DHT22;9435;52.122;5.502;2023-08-06T04:47:57;15.00;99.90
18611;DHT22;9435;52.122;5.502;2023-08-06T04:50:24;15.00;99.90
18611;DHT22;9435;52.122;5.502;2023-08-06T04:52:51;15.00;99.90
18611;DHT22;9435;52.122;5.502;2023-08-06T04:55:18;15.00;99.90
18611;DHT22;9435;52.122;5.502;2023-08-06T04:57:46;15.00;99.90
18611;DHT22;9435;52.122;5.502;2023-08-06T05:00:13;15.00;99.90
18611;DHT22;9435;52.122;5.502;2023-08-06T05:02:41;15.00;99.90
18611;DHT22;9435;52.122;5.502;2023-08-06T05:05:08;15.00;99.90
18611;DHT22;9435;52.122;5.502;2023-08-06T05:07:35;15.00;99.90
18611;DHT22;9435;52.122;5.502;2023-08-06T05:10:02;15.00;99.90
18611;DHT22;9435;52.122;5.502;2023-08-06T05:12:30;15.00;99.90
18611;DHT22;9435;52.122;5.502;2023-08-06T05:14:57;15.00;99.90
18611;DHT22;9435;52.122;5.502;2023-08-06T05:17:24;15.10;99.90
18611;DHT22;9435;52.122;5.502;2023-08-06T05:19:52;15.00;99.90
18611;DHT22;9435;52.122;5.502;2023-08-06T05:22:19;15.10;99.90
18611;DHT22;9435;52.122;5.502;2023-08-06T05:24:46;15.10;99.90
18611;DHT22;9435;52.122;5.502;2023-08-06T05:27:14;15.10;99.90
18611;DHT22;9435;52.122;5.502;2023-08-06T05:29:41;15.20;99.90
18611;DHT22;9435;52.122;5.502;2023-08-06T05:32:08;15.20;99.90
18611;DHT22;9435;52.122;5.502;2023-08-06T05:34:35;15.10;99.90
18611;DHT22;9435;52.122;5.502;2023-08-06T05:37:05;15.20;99.90
18611;DHT22;9435;52.122;5.502;2023-08-06T05:39:32;15.20;99.90
18611;DHT22;9435;52.122;5.502;2023-08-06T05:41:59;15.20;99.90
18611;DHT22;9435;52.122;5.502;2023-08-06T05:44:26;15.20;99.90
18611;DHT22;9435;52.122;5.502;2023-08-06T05:46:53;15.20;99.90
18611;DHT22;9435;52.122;5.502;2023-08-06T05:49:20;15.20;99.90
18611;DHT22;9435;52.122;5.502;2023-08-06T05:51:47;15.30;99.90
18611;DHT22;9435;52.122;5.502;2023-08-06T05:54:15;15.30;99.90
18611;DHT22;9435;52.122;5.502;2023-08-06T05:56:43;15.40;99.90
18611;DHT22;9435;52.122;5.502;2023-08-06T05:59:10;15.30;99.90
18611;DHT22;9435;52.122;5.502;2023-08-06T06:01:37;15.40;99.90
18611;DHT22;9435;52.122;5.502;2023-08-06T06:04:04;15.40;99.90
18611;DHT22;9435;52.122;5.502;2023-08-06T06:06:31;15.40;99.90
18611;DHT22;9435;52.122;5.502;2023-08-06T06:08:58;15.40;99.90
18611;DHT22;9435;52.122;5.502;2023-08-06T06:11:26;15.30;99.90
18611;DHT22;9435;52.122;5.502;2023-08-06T06:13:53;15.20;99.90
18611;DHT22;9435;52.122;5.502;2023-08-06T06:16:20;15.30;99.90
18611;DHT22;9435;52.122;5.502;2023-08-06T06:18:47;15.20;99.90
18611;DHT22;9435;52.122;5.502;2023-08-06T06:21:14;15.30;99.90
18611;DHT22;9435;52.122;5.502;2023-08-06T06:23:41;15.30;99.90
18611;DHT22;9435;52.122;5.502;2023-08-06T06:26:09;15.30;99.90
18611;DHT22;9435;52.122;5.502;2023-08-06T06:28:37;15.20;99.90
18611;DHT22;9435;52.122;5.502;2023-08-06T06:31:04;15.30;99.90
18611;DHT22;9435;52.122;5.502;2023-08-06T06:33:32;15.30;99.90
18611;DHT22;9435;52.122;5.502;2023-08-06T06:35:59;15.30;99.90
18611;DHT22;9435;52.122;5.502;2023-08-06T06:38:26;15.30;99.90
18611;DHT22;9435;52.122;5.502;2023-08-06T06:40:56;15.30;99.90
18611;DHT22;9435;52.122;5.502;2023-08-06T06:43:24;15.40;99.90
18611;DHT22;9435;52.122;5.502;2023-08-06T06:45:56;15.40;99.90
18611;DHT22;9435;52.122;5.502;2023-08-06T06:48:24;15.40;99.90
18611;DHT22;9435;52.122;5.502;2023-08-06T06:50:51;15.50;99.90
18611;DHT22;9435;52.122;5.502;2023-08-06T06:53:18;15.60;99.90
18611;DHT22;9435;52.122;5.502;2023-08-06T06:55:45;15.50;99.90
18611;DHT22;9435;52.122;5.502;2023-08-06T06:58:15;15.60;99.90
18611;DHT22;9435;52.122;5.502;2023-08-06T07:00:42;15.60;99.90
18611;DHT22;9435;52.122;5.502;2023-08-06T07:03:10;15.60;99.90
18611;DHT22;9435;52.122;5.502;2023-08-06T07:05:38;15.50;99.90
18611;DHT22;9435;52.122;5.502;2023-08-06T07:08:05;15.40;99.90
18611;DHT22;9435;52.122;5.502;2023-08-06T07:10:32;15.50;99.90
18611;DHT22;9435;52.122;5.502;2023-08-06T07:12:59;15.50;99.90
18611;DHT22;9435;52.122;5.502;2023-08-06T07:15:26;15.50;99.90
18611;DHT22;9435;52.122;5.502;2023-08-06T07:17:53;15.40;99.90
18611;DHT22;9435;52.122;5.502;2023-08-06T07:20:21;15.50;99.90
18611;DHT22;9435;52.122;5.502;2023-08-06T07:22:48;15.50;99.90
18611;DHT22;9435;52.122;5.502;2023-08-06T07:25:17;15.60;99.90
18611;DHT22;9435;52.122;5.502;2023-08-06T07:27:45;15.70;99.90
18611;DHT22;9435;52.122;5.502;2023-08-06T07:30:12;15.70;99.90
18611;DHT22;9435;52.122;5.502;2023-08-06T07:32:39;15.70;99.90
18611;DHT22;9435;52.122;5.502;2023-08-06T07:35:06;15.70;99.90
18611;DHT22;9435;52.122;5.502;2023-08-06T07:37:39;15.70;99.90
18611;DHT22;9435;52.122;5.502;2023-08-06T07:40:07;15.80;99.90
18611;DHT22;9435;52.122;5.502;2023-08-06T07:42:34;15.80;99.90
18611;DHT22;9435;52.122;5.502;2023-08-06T07:45:02;15.70;99.90
18611;DHT22;9435;52.122;5.502;2023-08-06T07:47:29;15.80;99.90
18611;DHT22;9435;52.122;5.502;2023-08-06T07:49:56;15.80;99.90
18611;DHT22;9435;52.122;5.502;2023-08-06T07:52:23;15.80;99.90
18611;DHT22;9435;52.122;5.502;2023-08-06T07:54:52;15.80;99.90
18611;DHT22;9435;52.122;5.502;2023-08-06T07:57:19;15.80;99.90
18611;DHT22;9435;52.122;5.502;2023-08-06T07:59:46;15.90;99.90
18611;DHT22;9435;52.122;5.502;2023-08-06T08:02:13;16.00;99.90
18611;DHT22;9435;52.122;5.502;2023-08-06T08:04:40;15.90;99.90
18611;DHT22;9435;52.122;5.502;2023-08-06T08:07:07;16.00;99.90
18611;DHT22;9435;52.122;5.502;2023-08-06T08:09:34;16.00;99.90
18611;DHT22;9435;52.122;5.502;2023-08-06T08:12:03;16.00;99.90
18611;DHT22;9435;52.122;5.502;2023-08-06T08:14:31;16.00;99.90
18611;DHT22;9435;52.122;5.502;2023-08-06T08:17:01;16.10;99.90
18611;DHT22;9435;52.122;5.502;2023-08-06T08:19:29;16.00;99.90
18611;DHT22;9435;52.122;5.502;2023-08-06T08:21:56;16.00;99.90
18611;DHT22;9435;52.122;5.502;2023-08-06T08:24:23;16.00;99.90
18611;DHT22;9435;52.122;5.502;2023-08-06T08:26:50;15.90;99.90
18611;DHT22;9435;52.122;5.502;2023-08-06T08:29:19;16.00;99.90
18611;DHT22;9435;52.122;5.502;2023-08-06T08:31:47;16.00;99.90
18611;DHT22;9435;52.122;5.502;2023-08-06T08:34:15;16.10;99.90
18611;DHT22;9435;52.122;5.502;2023-08-06T08:36:43;16.10;99.90
18611;DHT22;9435;52.122;5.502;2023-08-06T08:39:12;16.10;99.90
18611;DHT22;9435;52.122;5.502;2023-08-06T08:41:41;16.20;99.90
18611;DHT22;9435;52.122;5.502;2023-08-06T08:44:10;16.30;99.90
18611;DHT22;9435;52.122;5.502;2023-08-06T08:46:40;16.20;99.90
18611;DHT22;9435;52.122;5.502;2023-08-06T08:49:07;16.20;99.90
18611;DHT22;9435;52.122;5.502;2023-08-06T08:51:35;16.20;99.90
18611;DHT22;9435;52.122;5.502;2023-08-06T08:54:03;16.30;99.90
18611;DHT22;9435;52.122;5.502;2023-08-06T08:56:31;16.30;99.90
18611;DHT22;9435;52.122;5.502;2023-08-06T08:58:58;16.30;99.90
18611;DHT22;9435;52.122;5.502;2023-08-06T09:01:26;16.30;99.90
18611;DHT22;9435;52.122;5.502;2023-08-06T09:03:56;16.30;99.90
18611;DHT22;9435;52.122;5.502;2023-08-06T09:06:27;16.30;99.90
18611;DHT22;9435;52.122;5.502;2023-08-06T09:09:01;16.20;99.90
18611;DHT22;9435;52.122;5.502;2023-08-06T09:11:36;16.10;99.90
18611;DHT22;9435;52.122;5.502;2023-08-06T09:14:06;15.90;99.90
18611;DHT22;9435;52.122;5.502;2023-08-06T09:16:34;15.80;99.90
18611;DHT22;9435;52.122;5.502;2023-08-06T09:19:09;15.70;99.90
18611;DHT22;9435;52.122;5.502;2023-08-06T09:21:38;15.70;99.90
18611;DHT22;9435;52.122;5.502;2023-08-06T09:24:09;15.60;99.90
18611;DHT22;9435;52.122;5.502;2023-08-06T09:26:37;15.60;99.90
18611;DHT22;9435;52.122;5.502;2023-08-06T09:29:05;15.50;99.90
18611;DHT22;9435;52.122;5.502;2023-08-06T09:31:34;15.50;99.90
18611;DHT22;9435;52.122;5.502;2023-08-06T09:34:12;15.50;99.90
18611;DHT22;9435;52.122;5.502;2023-08-06T09:36:41;15.50;99.90
18611;DHT22;9435;52.122;5.502;2023-08-06T09:39:16;15.50;99.90
18611;DHT22;9435;52.122;5.502;2023-08-06T09:41:43;15.60;99.90
18611;DHT22;9435;52.122;5.502;2023-08-06T09:44:15;15.60;99.90
18611;DHT22;9435;52.122;5.502;2023-08-06T09:46:47;15.60;99.90
18611;DHT22;9435;52.122;5.502;2023-08-06T09:49:17;15.50;99.90
18611;DHT22;9435;52.122;5.502;2023-08-06T09:51:45;15.50;99.90
18611;DHT22;9435;52.122;5.502;2023-08-06T09:54:12;15.50;99.90
18611;DHT22;9435;52.122;5.502;2023-08-06T09:56:42;15.50;99.90
18611;DHT22;9435;52.122;5.502;2023-08-06T09:59:09;15.50;99.90
18611;DHT22;9435;52.122;5.502;2023-08-06T10:01:37;15.60;99.90
18611;DHT22;9435;52.122;5.502;2023-08-06T10:04:05;15.70;99.90
18611;DHT22;9435;52.122;5.502;2023-08-06T10:06:35;15.60;99.90
18611;DHT22;9435;52.122;5.502;2023-08-06T10:09:03;15.50;99.90
18611;DHT22;9435;52.122;5.502;2023-08-06T10:11:30;15.50;99.90
18611;DHT22;9435;52.122;5.502;2023-08-06T10:14:02;15.50;99.90
18611;DHT22;9435;52.122;5.502;2023-08-06T10:16:31;15.50;99.90
18611;DHT22;9435;52.122;5.502;2023-08-06T10:19:00;15.50;99.90
18611;DHT22;9435;52.122;5.502;2023-08-06T10:21:28;15.50;99.90
18611;DHT22;9435;52.122;5.502;2023-08-06T10:23:59;15.50;99.90
18611;DHT22;9435;52.122;5.502;2023-08-06T10:26:27;15.40;99.90
18611;DHT22;9435;52.122;5.502;2023-08-06T10:28:55;15.40;99.90
18611;DHT22;9435;52.122;5.502;2023-08-06T10:31:55;15.40;99.90
18611;DHT22;9435;52.122;5.502;2023-08-06T10:34:25;15.40;99.90
18611;DHT22;9435;52.122;5.502;2023-08-06T10:36:55;15.40;99.90
18611;DHT22;9435;52.122;5.502;2023-08-06T10:39:27;15.40;99.90
18611;DHT22;9435;52.122;5.502;2023-08-06T10:41:55;15.40;99.90
18611;DHT22;9435;52.122;5.502;2023-08-06T10:44:23;15.30;99.90
18611;DHT22;9435;52.122;5.502;2023-08-06T10:46:50;15.40;99.90
18611;DHT22;9435;52.122;5.502;2023-08-06T10:49:17;15.40;99.90
18611;DHT22;9435;52.122;5.502;2023-08-06T10:51:46;15.50;99.90
18611;DHT22;9435;52.122;5.502;2023-08-06T10:54:13;15.40;99.90
18611;DHT22;9435;52.122;5.502;2023-08-06T10:56:42;15.40;99.90
18611;DHT22;9435;52.122;5.502;2023-08-06T10:59:10;15.40;99.90
18611;DHT22;9435;52.122;5.502;2023-08-06T11:01:37;15.40;99.90
18611;DHT22;9435;52.122;5.502;2023-08-06T11:04:05;15.50;99.90
18611;DHT22;9435;52.122;5.502;2023-08-06T11:06:32;15.50;99.90
18611;DHT22;9435;52.122;5.502;2023-08-06T11:09:01;15.50;99.90
18611;DHT22;9435;52.122;5.502;2023-08-06T11:11:28;15.50;99.90
18611;DHT22;9435;52.122;5.502;2023-08-06T11:13:57;15.60;99.90
18611;DHT22;9435;52.122;5.502;2023-08-06T11:16:24;15.60;99.90
18611;DHT22;9435;52.122;5.502;2023-08-06T11:18:51;15.60;99.90
18611;DHT22;9435;52.122;5.502;2023-08-06T11:21:20;15.50;99.90
18611;DHT22;9435;52.122;5.502;2023-08-06T11:23:47;15.60;99.90
18611;DHT22;9435;52.122;5.502;2023-08-06T11:26:19;15.60;99.90
18611;DHT22;9435;52.122;5.502;2023-08-06T11:28:47;15.60;99.90
18611;DHT22;9435;52.122;5.502;2023-08-06T11:31:22;15.60;99.90
18611;DHT22;9435;52.122;5.502;2023-08-06T11:33:50;15.60;99.90
18611;DHT22;9435;52.122;5.502;2023-08-06T11:36:29;15.50;99.90
18611;DHT22;9435;52.122;5.502;2023-08-06T11:38:56;15.50;99.90
18611;DHT22;9435;52.122;5.502;2023-08-06T11:41:24;15.50;99.90
18611;DHT22;9435;52.122;5.502;2023-08-06T11:43:51;15.50;99.90
18611;DHT22;9435;52.122;5.502;2023-08-06T11:46:20;15.50;99.90
18611;DHT22;9435;52.122;5.502;2023-08-06T11:48:52;15.50;99.90
18611;DHT22;9435;52.122;5.502;2023-08-06T11:51:22;15.40;99.90
18611;DHT22;9435;52.122;5.502;2023-08-06T11:53:53;15.40;99.90
18611;DHT22;9435;52.122;5.502;2023-08-06T11:56:21;15.50;99.90
18611;DHT22;9435;52.122;5.502;2023-08-06T11:58:49;15.40;99.90
18611;DHT22;9435;52.122;5.502;2023-08-06T12:01:17;15.30;99.90
18611;DHT22;9435;52.122;5.502;2023-08-06T12:03:46;15.30;99.90
18611;DHT22;9435;52.122;5.502;2023-08-06T12:06:13;15.30;99.90
18611;DHT22;9435;52.122;5.502;2023-08-06T12:08:40;15.30;99.90
18611;DHT22;9435;52.122;5.502;2023-08-06T12:11:08;15.30;99.90
18611;DHT22;9435;52.122;5.502;2023-08-06T12:13:35;15.30;99.90
18611;DHT22;9435;52.122;5.502;2023-08-06T12:16:02;15.30;99.90
18611;DHT22;9435;52.122;5.502;2023-08-06T12:18:29;15.20;99.90
18611;DHT22;9435;52.122;5.502;2023-08-06T12:20:58;15.30;99.90
18611;DHT22;9435;52.122;5.502;2023-08-06T12:23:25;15.30;99.90
18611;DHT22;9435;52.122;5.502;2023-08-06T12:25:52;15.30;99.90
18611;DHT22;9435;52.122;5.502;2023-08-06T12:28:19;15.40;99.90
18611;DHT22;9435;52.122;5.502;2023-08-06T12:30:46;15.40;99.90
18611;DHT22;9435;52.122;5.502;2023-08-06T12:33:15;15.40;99.90
18611;DHT22;9435;52.122;5.502;2023-08-06T12:35:42;15.40;99.90
18611;DHT22;9435;52.122;5.502;2023-08-06T12:38:11;15.40;99.90
18611;DHT22;9435;52.122;5.502;2023-08-06T12:40:39;15.50;99.90
18611;DHT22;9435;52.122;5.502;2023-08-06T12:43:07;15.50;99.90
18611;DHT22;9435;52.122;5.502;2023-08-06T12:45:34;15.50;99.90
18611;DHT22;9435;52.122;5.502;2023-08-06T12:48:03;15.50;99.90
18611;DHT22;9435;52.122;5.502;2023-08-06T12:50:30;15.60;99.90
18611;DHT22;9435;52.122;5.502;2023-08-06T12:52:58;15.50;99.90
18611;DHT22;9435;52.122;5.502;2023-08-06T12:55:27;15.60;99.90
18611;DHT22;9435;52.122;5.502;2023-08-06T12:57:55;15.60;99.90
18611;DHT22;9435;52.122;5.502;2023-08-06T13:00:22;15.50;99.90
18611;DHT22;9435;52.122;5.502;2023-08-06T13:02:50;15.60;99.90
18611;DHT22;9435;52.122;5.502;2023-08-06T13:05:18;15.60;99.90
18611;DHT22;9435;52.122;5.502;2023-08-06T13:07:46;15.60;99.90
18611;DHT22;9435;52.122;5.502;2023-08-06T13:10:13;15.60;99.90
18611;DHT22;9435;52.122;5.502;2023-08-06T13:12:42;15.60;99.90
18611;DHT22;9435;52.122;5.502;2023-08-06T13:15:10;15.70;99.90
18611;DHT22;9435;52.122;5.502;2023-08-06T13:17:37;15.70;99.90
18611;DHT22;9435;52.122;5.502;2023-08-06T13:20:06;15.80;99.90
18611;DHT22;9435;52.122;5.502;2023-08-06T13:22:34;15.80;99.90
18611;DHT22;9435;52.122;5.502;2023-08-06T13:25:01;15.80;99.90
18611;DHT22;9435;52.122;5.502;2023-08-06T13:27:28;15.90;99.90
18611;DHT22;9435;52.122;5.502;2023-08-06T13:29:57;15.90;99.90
18611;DHT22;9435;52.122;5.502;2023-08-06T13:32:25;15.90;99.90
18611;DHT22;9435;52.122;5.502;2023-08-06T13:34:52;16.00;99.90
18611;DHT22;9435;52.122;5.502;2023-08-06T13:37:19;16.00;99.90
18611;DHT22;9435;52.122;5.502;2023-08-06T13:39:47;16.10;99.90
18611;DHT22;9435;52.122;5.502;2023-08-06T13:42:14;16.10;99.90
18611;DHT22;9435;52.122;5.502;2023-08-06T13:44:41;16.20;99.90
18611;DHT22;9435;52.122;5.502;2023-08-06T13:47:09;16.20;99.90
18611;DHT22;9435;52.122;5.502;2023-08-06T13:49:36;16.20;99.90
18611;DHT22;9435;52.122;5.502;2023-08-06T13:52:04;16.20;99.90
18611;DHT22;9435;52.122;5.502;2023-08-06T13:54:31;16.20;99.90
18611;DHT22;9435;52.122;5.502;2023-08-06T13:56:58;16.30;99.90
18611;DHT22;9435;52.122;5.502;2023-08-06T13:59:25;16.30;99.90
18611;DHT22;9435;52.122;5.502;2023-08-06T14:01:52;16.30;99.90
18611;DHT22;9435;52.122;5.502;2023-08-06T14:04:21;16.30;99.90
18611;DHT22;9435;52.122;5.502;2023-08-06T14:06:48;16.40;99.90
18611;DHT22;9435;52.122;5.502;2023-08-06T14:09:15;16.50;99.90
18611;DHT22;9435;52.122;5.502;2023-08-06T14:11:44;16.40;99.90
18611;DHT22;9435;52.122;5.502;2023-08-06T14:14:11;16.50;99.90
18611;DHT22;9435;52.122;5.502;2023-08-06T14:16:38;16.50;99.90
18611;DHT22;9435;52.122;5.502;2023-08-06T14:19:05;16.60;99.90
18611;DHT22;9435;52.122;5.502;2023-08-06T14:21:34;16.60;99.90
18611;DHT22;9435;52.122;5.502;2023-08-06T14:24:01;16.60;99.90
18611;DHT22;9435;52.122;5.502;2023-08-06T14:26:29;16.60;99.90
18611;DHT22;9435;52.122;5.502;2023-08-06T14:28:56;16.60;99.90
18611;DHT22;9435;52.122;5.502;2023-08-06T14:31:23;16.50;99.90
18611;DHT22;9435;52.122;5.502;2023-08-06T14:33:50;16.60;99.90
18611;DHT22;9435;52.122;5.502;2023-08-06T14:36:17;16.50;99.90
18611;DHT22;9435;52.122;5.502;2023-08-06T14:38:45;16.60;99.90
18611;DHT22;9435;52.122;5.502;2023-08-06T14:41:12;16.60;99.90
18611;DHT22;9435;52.122;5.502;2023-08-06T14:43:39;16.70;99.90
18611;DHT22;9435;52.122;5.502;2023-08-06T14:46:06;16.70;99.90
18611;DHT22;9435;52.122;5.502;2023-08-06T14:48:33;16.70;99.90
18611;DHT22;9435;52.122;5.502;2023-08-06T14:51:01;16.80;99.90
18611;DHT22;9435;52.122;5.502;2023-08-06T14:53:28;16.80;99.90
18611;DHT22;9435;52.122;5.502;2023-08-06T14:55:56;16.80;99.90
18611;DHT22;9435;52.122;5.502;2023-08-06T14:58:23;16.80;99.90
18611;DHT22;9435;52.122;5.502;2023-08-06T15:00:50;16.80;99.90
18611;DHT22;9435;52.122;5.502;2023-08-06T15:03:17;16.80;99.90
18611;DHT22;9435;52.122;5.502;2023-08-06T15:05:46;16.90;99.90
18611;DHT22;9435;52.122;5.502;2023-08-06T15:08:14;16.90;99.90
18611;DHT22;9435;52.122;5.502;2023-08-06T15:10:41;17.00;99.90
18611;DHT22;9435;52.122;5.502;2023-08-06T15:13:09;17.00;99.90
18611;DHT22;9435;52.122;5.502;2023-08-06T15:15:36;17.00;99.90
18611;DHT22;9435;52.122;5.502;2023-08-06T15:18:07;16.80;99.90
18611;DHT22;9435;52.122;5.502;2023-08-06T15:20:34;16.80;99.90
18611;DHT22;9435;52.122;5.502;2023-08-06T15:23:01;16.70;99.90
18611;DHT22;9435;52.122;5.502;2023-08-06T15:25:28;16.60;99.90
18611;DHT22;9435;52.122;5.502;2023-08-06T15:27:55;16.60;99.90
18611;DHT22;9435;52.122;5.502;2023-08-06T15:30:24;16.50;99.90
18611;DHT22;9435;52.122;5.502;2023-08-06T15:32:51;16.40;99.90
18611;DHT22;9435;52.122;5.502;2023-08-06T15:35:18;16.40;99.90
18611;DHT22;9435;52.122;5.502;2023-08-06T15:37:45;16.20;99.90
18611;DHT22;9435;52.122;5.502;2023-08-06T15:40:12;16.20;99.90
18611;DHT22;9435;52.122;5.502;2023-08-06T15:42:39;16.20;99.90
18611;DHT22;9435;52.122;5.502;2023-08-06T15:45:07;16.20;99.90
18611;DHT22;9435;52.122;5.502;2023-08-06T15:47:36;16.20;99.90
18611;DHT22;9435;52.122;5.502;2023-08-06T15:50:06;16.20;99.90